OAL883 FYWB-FACT
Flight info
| Callsign | OAL883 |
|---|---|
| Flight time | N/A |
| Altitude | 34000 |
| Route | XALVI UN188 IMRUG/N0457F360 UN188 ETMUS DCT DUSLA UQ62 ASPIK |
| Aircraft | B738/M-SDE2E3FGHIRWXY/LB1 |
Departure
| Time | 2026-05-04 09:15 |
|---|---|
| Airport | Walvis Bay International Airport (FYWB) |
Arrival
| Time | N/A |
|---|---|
| Airport | Cape Town International Airport (FACT) |
| Time | Latitude | Longitude | Altitude | Speed | Heading |
|---|---|---|---|---|---|
| 2026-05-04 09:01 | -22.97844 | 14.63944 | 281 ft | 0 kts | 160° |
| 2026-05-04 09:08 | -22.97847 | 14.63946 | 302 ft | 3 kts | 160° |
| 2026-05-04 09:08 | -22.97886 | 14.63938 | 295 ft | 9 kts | 212° |
| 2026-05-04 09:08 | -22.97949 | 14.63914 | 293 ft | 10 kts | 175° |
| 2026-05-04 09:09 | -22.98015 | 14.63931 | 293 ft | 10 kts | 162° |
| 2026-05-04 09:09 | -22.98069 | 14.63937 | 299 ft | 7 kts | 216° |
| 2026-05-04 09:09 | -22.98094 | 14.63889 | 297 ft | 7 kts | 249° |
| 2026-05-04 09:09 | -22.98115 | 14.63825 | 295 ft | 12 kts | 251° |
| 2026-05-04 09:10 | -22.98142 | 14.63740 | 295 ft | 12 kts | 251° |
| 2026-05-04 09:10 | -22.98167 | 14.63656 | 298 ft | 12 kts | 253° |
| 2026-05-04 09:10 | -22.98189 | 14.63579 | 298 ft | 7 kts | 252° |
| 2026-05-04 09:10 | -22.98211 | 14.63537 | 299 ft | 7 kts | 211° |
| 2026-05-04 09:11 | -22.98255 | 14.63541 | 301 ft | 6 kts | 165° |
| 2026-05-04 09:11 | -22.98294 | 14.63525 | 302 ft | 6 kts | 232° |
| 2026-05-04 09:11 | -22.98312 | 14.63482 | 300 ft | 6 kts | 249° |
| 2026-05-04 09:11 | -22.98334 | 14.63412 | 302 ft | 15 kts | 252° |
| 2026-05-04 09:12 | -22.98363 | 14.63312 | 304 ft | 8 kts | 252° |
| 2026-05-04 09:12 | -22.98373 | 14.63253 | 302 ft | 8 kts | 281° |
| 2026-05-04 09:14 | -22.98406 | 14.63159 | 301 ft | 3 kts | 91° |
| 2026-05-04 09:14 | -22.98404 | 14.63173 | 304 ft | 0 kts | 73° |
| 2026-05-04 09:14 | -22.98369 | 14.63293 | 305 ft | 53 kts | 72° |
| 2026-05-04 09:14 | -22.98157 | 14.63996 | 298 ft | 140 kts | 72° |
| 2026-05-04 09:15 | -22.97810 | 14.65155 | 805 ft | 168 kts | 71° |
| 2026-05-04 09:15 | -22.97440 | 14.66302 | 2092 ft | 154 kts | 72° |
| 2026-05-04 09:15 | -22.97274 | 14.67506 | 2767 ft | 181 kts | 104° |
| 2026-05-04 09:15 | -22.97961 | 14.68818 | 3028 ft | 220 kts | 137° |
| 2026-05-04 09:17 | -23.12055 | 14.73045 | 6816 ft | 263 kts | 167° |
| 2026-05-04 09:18 | -23.13823 | 14.73521 | 7167 ft | 261 kts | 168° |
| 2026-05-04 09:18 | -23.15157 | 14.73880 | 7423 ft | 260 kts | 168° |